createdAt,value
2022-09-26T00:30:29.243Z,27.87
2022-09-26T01:18:11.102Z,27.62
2022-09-26T02:48:02.541Z,23.85
2022-09-26T03:11:04.169Z,25.88
2022-09-26T05:08:49.871Z,24.90
2022-09-26T05:27:25.881Z,27.33
2022-09-26T05:40:58.256Z,29.92
2022-09-26T05:44:31.052Z,30.65
2022-09-26T05:48:20.849Z,28.05
2022-09-26T06:15:30.598Z,30.35
2022-09-26T06:24:57.222Z,35.15
2022-09-26T10:14:16.081Z,36.03
2022-09-26T12:01:43.628Z,5.50
2022-09-26T12:12:51.401Z,2.90
2022-09-26T12:18:53.804Z,2.42
2022-09-26T12:25:37.524Z,1.87
2022-09-26T12:30:19.293Z,1.58
2022-09-26T12:33:37.690Z,1.65
2022-09-26T12:38:52.023Z,1.85
2022-09-26T12:41:59.586Z,2.00
2022-09-26T12:45:42.294Z,1.80
2022-09-26T12:49:31.377Z,2.20
2022-09-26T12:52:39.004Z,2.13
2022-09-26T13:00:56.653Z,2.30
2022-09-26T13:04:17.320Z,2.50
2022-09-26T13:07:36.155Z,2.60
2022-09-26T13:11:06.381Z,2.75
2022-09-26T13:14:15.985Z,2.45
2022-09-26T13:17:28.836Z,2.00
2022-09-26T13:20:38.681Z,2.35
2022-09-26T13:23:55.889Z,2.55
2022-09-26T13:27:13.114Z,2.40
2022-09-26T13:30:24.798Z,3.22
2022-09-26T13:39:54.173Z,2.72
2022-09-26T13:43:09.106Z,2.62
2022-09-26T13:46:27.792Z,2.70
2022-09-26T13:49:51.537Z,2.65
2022-09-26T13:53:20.707Z,2.62
2022-09-26T13:56:37.103Z,2.40
2022-09-26T13:59:51.971Z,2.70
2022-09-26T14:03:17.283Z,2.60
2022-09-26T14:06:31.263Z,2.87
2022-09-26T14:09:53.565Z,2.80
2022-09-26T14:13:08.909Z,2.20
2022-09-26T14:16:28.810Z,2.40
2022-09-26T14:19:49.266Z,2.17
2022-09-26T14:22:56.575Z,2.37
2022-09-26T14:26:14.816Z,2.78
2022-09-26T14:29:30.930Z,2.50
2022-09-26T14:32:38.785Z,2.30
2022-09-26T14:35:44.449Z,2.70
2022-09-26T14:38:53.859Z,2.22
2022-09-26T14:41:59.167Z,2.20
2022-09-26T14:45:19.214Z,2.50
2022-09-26T14:48:41.297Z,2.33
2022-09-26T14:51:48.935Z,2.28
2022-09-26T14:54:57.941Z,2.30
2022-09-26T14:58:34.381Z,2.50
2022-09-26T15:01:40.254Z,2.50
2022-09-26T15:04:53.695Z,2.47
2022-09-26T15:08:01.027Z,2.50
2022-09-26T15:11:07.843Z,2.90
2022-09-26T15:14:52.609Z,2.80
2022-09-26T15:18:09.007Z,2.90
2022-09-26T15:21:27.137Z,2.50
2022-09-26T15:24:34.818Z,2.40
2022-09-26T15:27:46.217Z,2.62
2022-09-26T15:31:24.259Z,2.70
2022-09-26T15:34:35.539Z,2.50
2022-09-26T15:37:42.784Z,2.95
2022-09-26T15:41:05.381Z,3.25
2022-09-26T15:44:25.326Z,2.70
2022-09-26T15:47:31.472Z,3.03
2022-09-26T15:50:45.419Z,2.67
2022-09-26T15:53:59.079Z,3.78
2022-09-26T15:57:09.490Z,2.83
2022-09-26T16:00:17.934Z,2.90
2022-09-26T16:03:30.137Z,2.97
2022-09-26T16:06:42.391Z,3.30
2022-09-26T16:09:51.962Z,3.50
2022-09-26T16:13:01.358Z,3.30
2022-09-26T16:16:14.026Z,3.28
2022-09-26T16:19:34.939Z,3.22
2022-09-26T16:22:52.430Z,3.55
2022-09-26T16:25:59.933Z,3.35
2022-09-26T16:29:09.489Z,3.28
2022-09-26T16:32:21.032Z,3.53
2022-09-26T16:38:38.205Z,3.53
2022-09-26T16:42:01.188Z,4.18
2022-09-26T16:45:14.841Z,4.30
2022-09-26T16:48:40.466Z,3.92
2022-09-26T16:52:11.372Z,4.20
2022-09-26T16:55:18.181Z,4.70
2022-09-26T16:58:26.001Z,4.90
2022-09-26T17:01:52.794Z,5.57
2022-09-26T17:04:58.568Z,5.07
2022-09-26T17:08:05.646Z,4.87
2022-09-26T17:11:16.189Z,5.40
2022-09-26T17:17:32.324Z,5.12
2022-09-26T17:20:39.756Z,5.60
2022-09-26T17:23:46.464Z,6.10
2022-09-26T17:27:05.583Z,6.05
2022-09-26T17:30:18.115Z,6.45
2022-09-26T17:33:31.488Z,6.90
2022-09-26T17:36:38.549Z,6.12
2022-09-26T17:39:46.398Z,7.40
2022-09-26T17:42:54.945Z,7.12
2022-09-26T17:46:02.090Z,7.85
2022-09-26T17:49:17.092Z,7.80
2022-09-26T17:52:28.310Z,8.73
2022-09-26T17:55:34.644Z,8.85
2022-09-26T17:58:48.324Z,10.05
2022-09-26T18:02:19.941Z,9.25
2022-09-26T18:05:29.951Z,9.90
2022-09-26T18:08:39.568Z,9.70
2022-09-26T18:11:50.479Z,10.13
2022-09-26T18:15:01.146Z,11.00
2022-09-26T18:18:18.128Z,10.40
2022-09-26T18:21:28.234Z,10.10
2022-09-26T18:24:37.412Z,9.77
2022-09-26T18:27:46.369Z,10.43
2022-09-26T18:30:59.359Z,10.93
2022-09-26T18:34:05.418Z,10.57
2022-09-26T18:37:11.769Z,10.93
2022-09-26T18:40:16.664Z,11.95
2022-09-26T18:43:25.657Z,11.95
2022-09-26T18:46:36.156Z,12.75
2022-09-26T18:49:46.050Z,12.32
2022-09-26T18:52:55.670Z,12.07
2022-09-26T18:59:31.947Z,13.52
2022-09-26T19:05:49.212Z,13.62
2022-09-26T19:09:11.139Z,11.77
2022-09-26T19:12:17.824Z,12.80
2022-09-26T19:15:27.917Z,12.23
2022-09-26T19:18:33.012Z,12.40
2022-09-26T19:21:42.644Z,11.48
2022-09-26T19:24:56.292Z,10.07
2022-09-26T19:28:05.008Z,11.27
2022-09-26T19:31:13.313Z,10.57
2022-09-26T19:34:21.930Z,10.20
2022-09-26T19:37:31.378Z,11.00
2022-09-26T19:40:46.204Z,11.75
2022-09-26T19:43:56.732Z,11.63
2022-09-26T19:47:05.993Z,11.48
2022-09-26T19:50:17.844Z,10.68
2022-09-26T19:53:27.490Z,10.52
2022-09-26T19:56:34.198Z,11.57
2022-09-26T19:59:46.219Z,10.93
2022-09-26T20:02:55.106Z,11.02
2022-09-26T20:06:03.519Z,10.73
2022-09-26T20:09:15.525Z,11.63
2022-09-26T20:12:20.770Z,10.60
2022-09-26T20:15:27.706Z,10.43
2022-09-26T20:18:34.689Z,10.27
2022-09-26T20:21:42.895Z,11.07
2022-09-26T20:24:56.393Z,10.55
2022-09-26T20:28:04.930Z,10.82
2022-09-26T20:31:30.136Z,10.77
2022-09-26T20:34:39.261Z,11.07
2022-09-26T20:37:48.249Z,11.43
2022-09-26T20:41:02.992Z,11.45
2022-09-26T20:44:19.639Z,11.30
2022-09-26T20:47:31.273Z,11.05
2022-09-26T20:50:40.413Z,11.80
2022-09-26T20:53:49.340Z,11.80
2022-09-26T20:56:58.140Z,12.00
2022-09-26T21:00:04.434Z,11.93
2022-09-26T21:03:13.562Z,11.98
2022-09-26T21:06:22.090Z,13.35
2022-09-26T21:09:33.163Z,13.00
2022-09-26T21:12:42.368Z,12.25
2022-09-26T21:15:55.037Z,12.20
2022-09-26T21:19:01.707Z,12.45
2022-09-26T21:22:13.992Z,12.55
2022-09-26T21:25:22.433Z,12.57
2022-09-26T21:28:33.061Z,12.95
2022-09-26T21:31:41.132Z,12.98
2022-09-26T21:34:59.960Z,12.98
2022-09-26T21:38:10.752Z,13.15
2022-09-26T21:41:15.807Z,13.23
2022-09-26T21:44:40.433Z,12.35
2022-09-26T21:47:52.964Z,12.85
2022-09-26T21:51:01.081Z,13.27
2022-09-26T21:54:23.724Z,13.70
2022-09-26T21:57:37.535Z,13.30
2022-09-26T22:00:46.565Z,13.75
2022-09-26T22:03:55.959Z,13.77
2022-09-26T22:07:05.713Z,14.65
2022-09-26T22:10:16.760Z,13.77
2022-09-26T22:13:23.675Z,14.30
2022-09-26T22:16:33.315Z,14.05
2022-09-26T22:19:39.599Z,14.40
2022-09-26T22:22:49.895Z,14.65
2022-09-26T22:26:00.092Z,14.40
2022-09-26T22:29:06.928Z,14.95
2022-09-26T22:32:14.335Z,14.10
2022-09-26T22:35:18.950Z,14.63
2022-09-26T22:38:24.416Z,14.57
2022-09-26T22:41:28.340Z,14.30
2022-09-26T22:44:31.975Z,14.25
2022-09-26T22:47:36.487Z,14.00
2022-09-26T22:50:46.633Z,13.98
2022-09-26T22:53:51.016Z,14.18
2022-09-26T22:56:54.779Z,14.35
2022-09-26T23:00:00.842Z,14.30
2022-09-26T23:03:04.951Z,13.93
2022-09-26T23:06:09.939Z,14.38
2022-09-26T23:09:15.610Z,13.50
2022-09-26T23:12:24.476Z,13.98
2022-09-26T23:15:28.561Z,14.27
2022-09-26T23:18:35.137Z,13.57
2022-09-26T23:21:41.276Z,14.60
2022-09-26T23:24:48.067Z,14.65
2022-09-26T23:27:52.237Z,13.85
2022-09-26T23:31:05.984Z,14.23
2022-09-26T23:34:11.983Z,13.62
2022-09-26T23:37:15.714Z,14.43
2022-09-26T23:40:21.354Z,15.73
2022-09-26T23:43:33.395Z,16.15
2022-09-26T23:46:40.146Z,15.55
2022-09-26T23:49:46.770Z,15.50
2022-09-26T23:52:53.419Z,15.15
2022-09-26T23:56:11.063Z,15.82
2022-09-26T23:59:16.876Z,15.27
